Time;durP1;ratioP1;P1;durP2;ratioP2;P2;SDS_P1;SDS_P2;PMS_P1;PMS_P2;Temp;Humidity;BMP_temperature;BMP_pressure;BME280_temperature;BME280_humidity;BME280_pressure;Samples;Min_cycle;Max_cycle;Signal;HPM_P1;HPM_P2
2023/04/12 00:00:43;;;;;;;11.43;2.88;;;;;;;;;;5033344;28;20427;-85
2023/04/12 00:03:09;;;;;;;10.93;3.38;;;;;;;;;;5015499;28;20423;-84
2023/04/12 00:05:36;;;;;;;9.18;2.83;;;;;;;;;;5017611;28;20439;-84
2023/04/12 00:08:03;;;;;;;10.18;3.50;;;;;;;;;;5016769;28;20984;-84
2023/04/12 00:10:30;;;;;;;12.57;3.15;;;;;;;;;;5008019;28;20473;-84
2023/04/12 00:12:56;;;;;;;9.82;3.30;;;;;;;;;;5013211;28;20401;-84
2023/04/12 00:15:22;;;;;;;10.13;3.40;;;;;;;;;;5017326;28;20422;-85
2023/04/12 00:17:48;;;;;;;11.60;3.38;;;;;;;;;;5006700;28;20423;-84
2023/04/12 00:20:15;;;;;;;9.10;3.22;;;;;;;;;;4998671;28;20416;-85
2023/04/12 00:22:41;;;;;;;10.30;3.45;;;;;;;;;;5003068;28;20423;-84
2023/04/12 00:25:08;;;;;;;11.10;3.08;;;;;;;;;;5001095;28;20425;-85
2023/04/12 00:27:34;;;;;;;9.53;3.13;;;;;;;;;;5017928;28;20492;-85
2023/04/12 00:30:00;;;;;;;10.02;3.17;;;;;;;;;;5017536;28;20790;-86
2023/04/12 00:32:27;;;;;;;8.55;3.00;;;;;;;;;;5010435;28;20447;-85
2023/04/12 00:34:53;;;;;;;10.90;3.53;;;;;;;;;;5017335;28;20423;-86
2023/04/12 00:37:19;;;;;;;11.23;3.30;;;;;;;;;;5015273;28;20411;-85
2023/04/12 00:39:45;;;;;;;12.52;3.20;;;;;;;;;;5006879;28;20460;-86
2023/04/12 00:42:11;;;;;;;10.43;3.25;;;;;;;;;;4998287;28;20404;-86
2023/04/12 00:44:38;;;;;;;10.93;3.17;;;;;;;;;;5017131;28;20414;-85
2023/04/12 00:47:04;;;;;;;10.13;3.30;;;;;;;;;;5015974;28;20410;-85
2023/04/12 00:49:31;;;;;;;10.32;3.35;;;;;;;;;;5017674;28;20419;-85
2023/04/12 00:52:02;;;;;;;10.75;3.35;;;;;;;;;;5007910;28;20434;-86
2023/04/12 00:54:28;;;;;;;12.43;3.55;;;;;;;;;;5014616;28;20434;-85
2023/04/12 00:56:56;;;;;;;12.50;3.40;;;;;;;;;;5017477;28;20399;-85
2023/04/12 00:59:22;;;;;;;12.65;3.45;;;;;;;;;;5025641;28;20414;-86
2023/04/12 01:01:48;;;;;;;11.25;3.50;;;;;;;;;;4998454;28;20408;-86
2023/04/12 01:04:15;;;;;;;13.48;3.38;;;;;;;;;;4997470;28;20478;-85
2023/04/12 01:06:46;;;;;;;8.85;3.40;;;;;;;;;;4996836;28;20491;-85
2023/04/12 01:09:40;;;;;;;9.13;3.33;;;8.20;99.90;;;;;;5029432;28;20403;-86
2023/04/12 01:12:15;;;;;;;10.43;4.13;;;;;;;;;;5016521;28;20412;-86
2023/04/12 01:14:54;;;;;;;12.45;4.03;;;;;;;;;;5006921;28;20431;-86
2023/04/12 01:17:24;;;;;;;11.73;3.40;;;;;;;;;;5000513;28;20482;-85
2023/04/12 01:19:57;;;;;;;9.82;3.78;;;;;;;;;;5016799;28;20425;-85
2023/04/12 01:22:45;;;;;;;10.20;3.38;;;;;;;;;;5016489;28;20407;-85
2023/04/12 01:25:11;;;;;;;8.83;2.90;;;;;;;;;;5016845;28;20516;-86
2023/04/12 01:27:37;;;;;;;12.10;3.40;;;;;;;;;;5004844;28;20426;-85
2023/04/12 01:30:06;;;;;;;12.75;3.15;;;;;;;;;;5007028;28;20788;-85
2023/04/12 01:32:34;;;;;;;10.65;3.00;;;;;;;;;;5006345;28;20415;-85
2023/04/12 01:35:01;;;;;;;9.93;3.22;;;;;;;;;;5015411;28;20438;-85
2023/04/12 01:37:28;;;;;;;12.90;3.15;;;;;;;;;;5015477;28;20912;-84
2023/04/12 01:39:54;;;;;;;8.77;2.97;;;;;;;;;;5013211;28;20426;-86
2023/04/12 01:42:20;;;;;;;10.70;3.37;;;;;;;;;;5014908;28;20438;-85
2023/04/12 01:44:47;;;;;;;8.00;3.13;;;;;;;;;;5010934;28;20414;-84
2023/04/12 01:47:13;;;;;;;12.07;3.70;;;;;;;;;;5016975;28;20466;-85
2023/04/12 01:49:46;;;;;;;7.93;3.13;;;;;;;;;;5035194;28;20435;-85
2023/04/12 01:52:14;;;;;;;11.00;3.20;;;;;;;;;;5021385;28;20434;-85
2023/04/12 01:54:42;;;;;;;9.40;3.28;;;;;;;;;;5024410;28;20435;-85
2023/04/12 01:57:08;;;;;;;8.13;3.17;;;;;;;;;;5026483;28;20502;-85
2023/04/12 01:59:39;;;;;;;11.02;3.40;;;;;;;;;;5007169;28;20445;-85
2023/04/12 02:02:05;;;;;;;11.55;3.25;;;;;;;;;;5023083;28;20445;-85
2023/04/12 02:04:32;;;;;;;7.13;2.90;;;;;;;;;;5022158;28;20406;-85
2023/04/12 02:06:58;;;;;;;8.07;2.85;;;;;;;;;;5005729;28;20429;-82
2023/04/12 02:09:24;;;;;;;10.63;3.88;;;;;;;;;;5016873;28;20491;-84
2023/04/12 02:11:50;;;;;;;7.47;3.00;;;;;;;;;;5023843;28;20439;-85
2023/04/12 02:14:17;;;;;;;11.32;3.20;;;;;;;;;;5022131;28;20439;-85
2023/04/12 02:16:44;;;;;;;9.40;3.13;;;;;;;;;;5032259;28;20486;-83
2023/04/12 02:19:11;;;;;;;7.20;2.65;;;;;;;;;;5015645;28;20918;-84
2023/04/12 02:21:44;;;;;;;8.65;2.67;;;;;;;;;;5015883;28;20437;-84
2023/04/12 02:24:10;;;;;;;7.95;2.60;;;;;;;;;;4998527;28;20553;-84
2023/04/12 02:26:37;;;;;;;6.85;2.60;;;;;;;;;;5020156;28;20415;-83
2023/04/12 02:29:06;;;;;;;8.23;2.50;;;;;;;;;;5016594;28;20410;-83
2023/04/12 02:31:34;;;;;;;7.10;2.50;;;;;;;;;;5009191;28;20434;-83
2023/04/12 02:34:00;;;;;;;9.48;2.50;;;;;;;;;;5016161;28;20779;-82
2023/04/12 02:36:26;;;;;;;9.30;2.65;;;;;;;;;;5011948;28;20425;-82
2023/04/12 02:38:53;;;;;;;6.75;2.35;;;;;;;;;;4998153;28;20419;-81
2023/04/12 02:41:20;;;;;;;7.00;2.50;;;;;;;;;;5014221;28;20465;-83
2023/04/12 02:43:46;;;;;;;8.80;3.00;;;;;;;;;;4998145;28;20943;-84
2023/04/12 02:46:18;;;;;;;11.77;2.80;;;;;;;;;;5021803;28;20419;-84
2023/04/12 02:48:44;;;;;;;8.20;2.50;;;;;;;;;;5014201;28;20442;-85
2023/04/12 02:51:10;;;;;;;8.63;3.20;;;;;;;;;;5009649;28;20541;-84
2023/04/12 02:53:36;;;;;;;5.70;2.50;;;;;;;;;;5030196;28;20466;-83
2023/04/12 02:56:06;;;;;;;6.03;2.30;;;;;;;;;;5019453;28;20418;-84
2023/04/12 02:58:33;;;;;;;7.67;2.50;;;;;;;;;;5050807;28;20537;-83
2023/04/12 03:01:06;;;;;;;10.80;2.63;;;;;;;;;;5018263;28;20411;-83
2023/04/12 03:03:33;;;;;;;5.57;2.50;;;;;;;;;;5004166;28;20403;-84
2023/04/12 03:05:59;;;;;;;7.18;2.80;;;;;;;;;;5015319;28;20801;-82
2023/04/12 03:08:25;;;;;;;7.57;2.70;;;;;;;;;;5016309;28;20426;-83
2023/04/12 03:10:51;;;;;;;7.28;2.70;;;;;;;;;;5017870;28;20491;-83
2023/04/12 03:13:17;;;;;;;10.00;2.60;;;;;;;;;;5034855;28;20422;-82
2023/04/12 03:15:43;;;;;;;6.82;2.58;;;;;;;;;;5025479;28;20980;-82
2023/04/12 03:18:09;;;;;;;9.57;2.90;;;;;;;;;;4999190;28;20433;-84
2023/04/12 03:20:38;;;;;;;7.75;2.75;;;;;;;;;;5031082;28;20430;-83
2023/04/12 03:23:04;;;;;;;7.75;3.28;;;;;;;;;;4998288;28;20986;-83
2023/04/12 03:25:30;;;;;;;6.68;2.90;;;;;;;;;;5003827;28;20405;-84
2023/04/12 03:27:56;;;;;;;7.70;2.67;;;;;;;;;;5019098;28;20411;-83
2023/04/12 03:30:23;;;;;;;8.65;2.55;;;;;;;;;;5005592;28;20428;-83
2023/04/12 03:32:49;;;;;;;7.90;2.50;;;;;;;;;;4999180;28;20419;-84
2023/04/12 03:35:15;;;;;;;8.23;2.55;;;;;;;;;;5015596;28;20430;-84
2023/04/12 03:37:42;;;;;;;6.70;2.13;;;;;;;;;;5018560;28;20413;-84
2023/04/12 03:40:09;;;;;;;6.05;2.15;;;;;;;;;;4998176;28;20915;-84
2023/04/12 03:42:35;;;;;;;4.88;2.00;;;;;;;;;;5005876;28;21022;-83
2023/04/12 03:45:01;;;;;;;8.30;2.40;;;;;;;;;;5017929;28;20406;-82
2023/04/12 03:47:28;;;;;;;8.05;2.55;;;;;;;;;;5016927;28;20744;-83
2023/04/12 03:50:01;;;;;;;7.15;2.30;;;;;;;;;;5033089;28;20431;-84
2023/04/12 03:52:27;;;;;;;5.68;1.90;;;;;;;;;;5033573;28;20426;-83
2023/04/12 03:54:53;;;;;;;8.35;2.30;;;;;;;;;;5016203;28;20431;-83
2023/04/12 03:57:19;;;;;;;7.53;2.45;;;;;;;;;;5016778;28;20415;-82
2023/04/12 03:59:45;;;;;;;6.72;2.38;;;;;;;;;;5016498;28;20471;-83
2023/04/12 04:02:11;;;;;;;6.65;2.50;;;;;;;;;;5032689;28;20515;-80
2023/04/12 04:04:37;;;;;;;8.02;2.88;;;;;;;;;;5016814;28;20770;-83
2023/04/12 04:07:04;;;;;;;8.87;2.40;;;;;;;;;;5016627;28;20431;-82
2023/04/12 04:09:30;;;;;;;9.02;2.88;;;;;;;;;;4999166;28;20434;-82
2023/04/12 04:11:56;;;;;;;7.55;2.60;;;;;;;;;;4999931;28;20906;-82
2023/04/12 04:14:22;;;;;;;10.73;3.10;;;;;;;;;;5002625;28;20890;-82
2023/04/12 04:16:51;;;;;;;8.87;3.03;;;;;;;;;;5033413;28;20410;-81
2023/04/12 04:19:17;;;;;;;9.50;3.40;;;;;;;;;;5013450;28;20462;-81
2023/04/12 04:21:43;;;;;;;10.60;3.30;;;;;;;;;;5015108;28;20418;-80
2023/04/12 04:24:10;;;;;;;8.55;3.20;;;;;;;;;;4999597;28;20876;-80
2023/04/12 04:26:37;;;;;;;10.13;3.60;;;;;;;;;;5019128;28;20782;-80
2023/04/12 04:29:04;;;;;;;9.65;3.92;;;;;;;;;;5014888;28;20906;-80
2023/04/12 04:31:33;;;;;;;12.18;4.63;;;;;;;;;;5015805;28;20419;-80
2023/04/12 04:34:00;;;;;;;9.43;4.13;;;;;;;;;;5015420;28;20448;-80
2023/04/12 04:36:26;;;;;;;10.15;4.20;;;;;;;;;;4998546;28;20399;-78
2023/04/12 04:38:52;;;;;;;10.57;4.77;;;;;;;;;;5025234;28;20427;-78
2023/04/12 04:41:21;;;;;;;10.48;4.72;;;;;;;;;;5014942;28;20498;-78
2023/04/12 04:43:48;;;;;;;12.43;5.40;;;;;;;;;;5014973;28;20462;-77
2023/04/12 04:46:14;;;;;;;10.30;5.10;;;;;;;;;;5014735;28;20932;-78
2023/04/12 04:48:40;;;;;;;12.73;5.70;;;;;;;;;;5016478;28;20534;-78
2023/04/12 04:51:06;;;;;;;13.02;6.70;;;;;;;;;;5002317;28;20418;-78
2023/04/12 04:53:32;;;;;;;12.60;6.43;;;;;;;;;;5014242;28;20930;-77
2023/04/12 04:56:00;;;;;;;10.30;6.15;;;;;;;;;;5015745;28;20767;-78
2023/04/12 04:58:26;;;;;;;13.45;7.15;;;;;;;;;;5014005;28;20426;-78
2023/04/12 05:00:56;;;;;;;15.07;6.57;;;;;;;;;;5014623;28;20453;-79
2023/04/12 05:03:22;;;;;;;13.98;6.50;;;;;;;;;;5013700;28;20427;-79
2023/04/12 05:05:49;;;;;;;15.43;7.15;;;;;;;;;;4998173;28;20430;-79
2023/04/12 05:08:15;;;;;;;13.50;6.28;;;;;;;;;;5013700;28;20429;-79
2023/04/12 05:10:43;;;;;;;10.98;6.78;;;;;;;;;;5000323;28;20492;-78
2023/04/12 05:13:09;;;;;;;35.17;8.65;;;;;;;;;;5015052;28;20464;-79
2023/04/12 05:15:35;;;;;;;18.20;6.70;;;;;;;;;;4997419;28;20423;-79
2023/04/12 05:18:01;;;;;;;13.75;6.25;;;;;;;;;;5011311;28;20422;-78
2023/04/12 05:20:31;;;;;;;26.48;8.18;;;;;;;;;;5012834;28;20891;-78
2023/04/12 05:22:57;;;;;;;11.57;6.03;;;;;;;;;;5015095;28;20426;-79
2023/04/12 05:25:23;;;;;;;12.48;5.95;;;;;;;;;;4997404;28;20510;-80
2023/04/12 05:27:49;;;;;;;13.75;5.78;;;;;;;;;;4998088;28;20457;-77
2023/04/12 05:30:15;;;;;;;21.50;6.75;;;;;;;;;;5015016;28;20411;-77
2023/04/12 05:32:41;;;;;;;14.10;5.18;;;;;;;;;;4997693;28;20423;-77
2023/04/12 05:35:08;;;;;;;15.23;5.85;;;;;;;;;;5012793;28;20431;-77
2023/04/12 05:37:34;;;;;;;18.45;6.30;;;;;;;;;;4996409;28;20462;-77
2023/04/12 05:40:00;;;;;;;12.15;5.13;;;;;;;;;;4982664;28;20434;-77
2023/04/12 05:42:27;;;;;;;11.32;4.90;;;;;;;;;;4997667;28;20417;-77
2023/04/12 05:44:54;;;;;;;9.43;4.90;;;;;;;;;;5012334;28;20423;-76
2023/04/12 05:47:23;;;;;;;10.98;5.18;;;;;;;;;;5013107;28;20482;-76
2023/04/12 05:49:49;;;;;;;9.27;4.70;;;;;;;;;;5030745;28;20457;-77
2023/04/12 05:52:15;;;;;;;9.17;4.87;;;;;;;;;;5012603;28;20465;-78
2023/04/12 05:54:41;;;;;;;10.02;4.82;;;;;;;;;;5032670;28;20444;-76
2023/04/12 05:57:07;;;;;;;10.10;4.72;;;;;;;;;;5012800;28;20430;-76
2023/04/12 05:59:33;;;;;;;13.03;5.10;;;;;;;;;;4997024;28;20419;-76
2023/04/12 06:02:00;;;;;;;12.02;4.93;;;;;;;;;;5014656;28;20490;-75
2023/04/12 06:04:26;;;;;;;9.88;4.97;;;;;;;;;;5011631;28;20426;-75
2023/04/12 06:06:52;;;;;;;12.40;4.90;;;;;;;;;;5012426;28;20997;-76
2023/04/12 06:09:19;;;;;;;9.82;4.90;;;;;;;;;;5010978;28;20449;-76
2023/04/12 06:11:45;;;;;;;11.70;5.03;;;;;;;;;;5012885;28;20418;-75
2023/04/12 06:14:11;;;;;;;11.98;4.90;;;;;;;;;;5012110;28;20831;-76
2023/04/12 06:16:37;;;;;;;11.13;4.88;;;;;;;;;;5012266;28;20752;-76
2023/04/12 06:19:04;;;;;;;8.90;4.80;;;;;;;;;;5007693;28;20415;-75
2023/04/12 06:21:30;;;;;;;11.23;5.25;;;;;;;;;;4996085;28;20458;-75
2023/04/12 06:23:56;;;;;;;11.98;5.47;;;;;;;;;;5012887;28;20410;-76
2023/04/12 06:26:22;;;;;;;9.85;5.50;;;;;;;;;;5012677;28;20406;-77
2023/04/12 06:28:48;;;;;;;12.13;5.80;;;;;;;;;;4995310;28;20511;-76
2023/04/12 06:31:16;;;;;;;11.45;5.13;;;;;;;;;;4996593;28;20787;-77
2023/04/12 06:33:42;;;;;;;11.48;5.88;;;;;;;;;;5013239;28;20427;-77
2023/04/12 06:36:10;;;;;;;10.20;5.40;;;;;;;;;;5012804;28;20679;-77
2023/04/12 06:38:38;;;;;;;9.05;5.60;;;;;;;;;;5012713;28;20406;-77
2023/04/12 06:41:04;;;;;;;12.60;5.88;;;;;;;;;;5008941;28;20779;-76
2023/04/12 06:43:30;;;;;;;8.77;5.80;;;;;;;;;;5004075;28;20921;-75
2023/04/12 06:45:57;;;;;;;12.23;5.97;;;;;;;;;;5010987;28;20498;-76
2023/04/12 06:48:23;;;;;;;13.00;6.63;;;;;;;;;;4996388;28;20903;-75
2023/04/12 06:50:49;;;;;;;9.15;5.80;;;;;;;;;;5010710;28;20426;-75
2023/04/12 06:53:15;;;;;;;11.40;5.93;;;;;;;;;;5008816;28;20740;-75
2023/04/12 06:55:41;;;;;;;12.18;6.15;;;;;;;;;;5027765;28;20427;-75
2023/04/12 06:58:07;;;;;;;13.95;6.30;;;;;;;;;;5022539;28;20504;-76
2023/04/12 07:00:33;;;;;;;9.95;6.43;;;;;;;;;;5013964;28;20427;-75
2023/04/12 07:02:59;;;;;;;10.15;6.40;;;;;;;;;;5001367;28;20430;-75
2023/04/12 07:05:25;;;;;;;11.27;6.50;;;;;;;;;;5016546;28;20437;-75
2023/04/12 07:07:51;;;;;;;26.98;7.47;;;;;;;;;;5016759;28;20434;-75
2023/04/12 07:10:17;;;;;;;9.93;6.67;;;;;;;;;;4999387;28;20489;-75
2023/04/12 07:12:44;;;;;;;12.88;6.40;;;;;;;;;;5032313;28;20914;-75
2023/04/12 07:15:10;;;;;;;9.60;6.40;;;;;;;;;;5013402;28;20435;-75
2023/04/12 07:17:36;;;;;;;11.40;6.82;;;;;;;;;;5015000;28;20418;-75
2023/04/12 07:20:02;;;;;;;16.25;7.95;;;;;;;;;;5032614;28;20449;-75
2023/04/12 07:22:28;;;;;;;57.05;11.02;;;;;;;;;;4998694;28;20414;-75
2023/04/12 07:24:54;;;;;;;10.05;7.22;;;;;;;;;;5000224;28;21057;-75
2023/04/12 07:27:20;;;;;;;12.07;7.47;;;;;;;;;;4998101;28;20430;-75
2023/04/12 07:29:47;;;;;;;12.10;7.40;;;;;;;;;;5014148;28;20814;-76
2023/04/12 07:32:13;;;;;;;9.40;7.38;;;;;;;;;;5029779;28;20431;-75
2023/04/12 07:34:39;;;;;;;10.73;7.60;;;;;;;;;;5032314;28;20957;-75
2023/04/12 07:37:05;;;;;;;10.65;7.15;;;;;;;;;;5015643;28;20446;-76
2023/04/12 07:39:33;;;;;;;12.55;7.13;;;;;;;;;;5015069;28;20431;-75
2023/04/12 07:42:00;;;;;;;12.53;7.40;;;;;;;;;;5013753;28;20426;-74
2023/04/12 07:44:26;;;;;;;10.38;6.82;;;;;;;;;;5012964;28;20426;-75
2023/04/12 07:46:52;;;;;;;11.30;7.18;;;;;;;;;;5014512;28;20739;-76
2023/04/12 07:49:18;;;;;;;9.88;7.40;;;;;;;;;;5016450;28;20422;-75
2023/04/12 07:51:44;;;;;;;11.38;7.50;;;;;;;;;;5014833;28;20426;-77
2023/04/12 07:54:12;;;;;;;10.57;7.25;;;;;;;;;;5013200;28;20561;-76
2023/04/12 07:56:38;;;;;;;9.67;7.10;;;;;;;;;;5015423;28;20516;-76
2023/04/12 07:59:04;;;;;;;10.68;7.80;;;;;;;;;;4982651;28;20922;-76
2023/04/12 08:01:31;;;;;;;9.35;7.10;;;;;;;;;;5014149;28;20435;-76
2023/04/12 08:03:57;;;;;;;9.45;7.80;;;;;;;;;;5015662;28;20969;-77
2023/04/12 08:06:23;;;;;;;8.48;7.47;;;;;;;;;;4998590;28;20467;-77
2023/04/12 08:08:49;;;;;;;9.57;7.88;;;;;;;;;;4999000;28;20407;-76
2023/04/12 08:11:15;;;;;;;10.97;7.80;;;;;;;;;;5015113;28;20450;-76
2023/04/12 08:13:41;;;;;;;11.13;7.90;;;;;;;;;;5016725;28;20407;-76
2023/04/12 08:16:08;;;;;;;10.70;8.55;;;;;;;;;;5015564;28;20419;-77
2023/04/12 08:18:34;;;;;;;9.85;7.85;;;;;;;;;;5033698;28;20430;-77
2023/04/12 08:21:00;;;;;;;13.25;8.50;;;;;;;;;;4999754;28;20407;-77
2023/04/12 08:23:26;;;;;;;28.40;8.97;;;;;;;;;;5016994;28;20413;-76
2023/04/12 08:26:02;;;;;;;10.50;8.35;;;;;;;;;;5001419;28;20410;-76
2023/04/12 08:28:43;;;;;;;11.37;8.93;;;;;;;;;;5016461;28;20427;-76
2023/04/12 08:31:15;;;;;;;11.27;9.30;;;;;;;;;;5015346;28;20473;-76
2023/04/12 08:33:41;;;;;;;10.37;9.10;;;;;;;;;;5012975;28;20466;-76
2023/04/12 08:36:09;;;;;;;10.40;9.25;;;;;;;;;;5015341;28;20411;-76
2023/04/12 08:38:37;;;;;;;10.88;9.60;;;;;;;;;;5013087;28;20790;-76
2023/04/12 08:41:06;;;;;;;11.38;9.43;;;;;;;;;;5013593;28;20527;-76
2023/04/12 08:43:33;;;;;;;12.32;10.43;;;;;;;;;;4998946;28;20479;-76
2023/04/12 08:46:00;;;;;;;12.20;9.85;;;;;;;;;;4998549;28;20419;-76
2023/04/12 08:48:27;;;;;;;11.80;9.88;;;;;;;;;;5022064;28;20510;-76
2023/04/12 08:50:54;;;;;;;11.90;9.50;;;;;;;;;;4997594;28;20423;-77
2023/04/12 08:53:23;;;;;;;12.57;10.13;;;;;;;;;;5012319;28;20455;-76
2023/04/12 08:55:49;;;;;;;12.43;10.45;;;;;;;;;;5014966;28;20462;-76
2023/04/12 08:58:15;;;;;;;14.52;10.30;;;;;;;;;;4999355;28;20415;-76
2023/04/12 09:00:42;;;;;;;12.88;10.68;;;;;;;;;;4992567;28;20819;-76
2023/04/12 09:03:09;;;;;;;12.82;10.20;;;;;;;;;;5015319;28;20415;-76
2023/04/12 09:05:35;;;;;;;12.80;10.27;;;;;;;;;;5030376;28;20415;-76
2023/04/12 09:08:02;;;;;;;11.10;9.82;;;;;;;;;;5019608;28;20458;-76
2023/04/12 09:10:32;;;;;;;12.43;9.77;;;;;;;;;;4998293;28;20430;-76
2023/04/12 09:12:59;;;;;;;12.37;9.80;;;8.60;99.90;;;;;;5014495;28;20423;-76
2023/04/12 09:15:25;;;;;;;12.80;10.32;;;;;;;;;;5015153;28;20949;-76
2023/04/12 09:18:04;;;;;;;13.15;9.90;;;;;;;;;;5015785;28;20434;-76
2023/04/12 09:20:30;;;;;;;10.40;9.20;;;;;;;;;;5017343;28;20427;-75
2023/04/12 09:22:56;;;;;;;11.15;9.32;;;;;;;;;;5014863;28;20767;-76
2023/04/12 09:25:47;;;;;;;13.83;11.10;;;;;;;;;;5013759;28;20470;-76
2023/04/12 09:28:24;;;;;;;12.40;9.97;;;9.00;99.90;;;;;;5014937;28;20481;-76
2023/04/12 09:30:51;;;;;;;11.65;8.70;;;;;;;;;;5013409;28;20496;-76
2023/04/12 09:33:22;;;;;;;14.57;9.30;;;9.00;99.90;;;;;;5029323;28;20430;-76
2023/04/12 09:35:48;;;;;;;11.90;9.20;;;;;;;;;;5011412;28;20572;-76
2023/04/12 09:38:15;;;;;;;12.25;8.05;;;;;;;;;;5012767;28;20449;-75
2023/04/12 09:40:41;;;;;;;12.38;8.40;;;;;;;;;;5013723;28;20427;-75
2023/04/12 09:43:07;;;;;;;11.30;7.82;;;;;;;;;;4997604;28;20949;-76
2023/04/12 09:45:37;;;;;;;11.93;7.75;;;;;;;;;;5012329;28;20779;-76
2023/04/12 09:48:04;;;;;;;9.98;7.65;;;;;;;;;;5012842;28;20438;-77
2023/04/12 09:50:33;;;;;;;9.88;7.65;;;;;;;;;;4994626;28;20997;-75
2023/04/12 09:53:01;;;;;;;11.18;7.20;;;;;;;;;;5013934;28;20470;-76
2023/04/12 09:55:29;;;;;;;11.45;7.88;;;10.70;99.90;;;;;;5012625;28;20427;-76
2023/04/12 09:57:55;;;;;;;11.57;6.47;;;;;;;;;;5011281;28;20918;-77
2023/04/12 10:00:24;;;;;;;9.43;6.33;;;10.80;99.90;;;;;;5012563;28;20414;-77
2023/04/12 10:02:51;;;;;;;10.70;5.95;;;;;;;;;;5010345;28;20418;-77
2023/04/12 10:05:20;;;;;;;13.18;5.90;;;10.60;99.90;;;;;;4997247;28;20449;-77
2023/04/12 10:07:46;;;;;;;9.73;5.20;;;10.80;99.90;;;;;;4997579;28;20419;-77
2023/04/12 10:10:15;;;;;;;14.00;5.50;;;10.70;99.90;;;;;;4982227;28;20498;-77
2023/04/12 10:12:42;;;;;;;10.18;5.40;;;;;;;;;;5013020;28;20418;-77
2023/04/12 10:15:17;;;;;;;14.30;5.90;;;;;;;;;;5012380;28;20427;-78
2023/04/12 10:17:45;;;;;;;10.23;4.47;;;11.00;99.90;;;;;;5030367;28;20450;-77
2023/04/12 10:20:13;;;;;;;11.43;5.60;;;11.40;99.90;;;;;;5012841;28;20450;-77
2023/04/12 10:23:05;;;;;;;14.32;5.53;;;;;;;;;;5013238;28;20418;-78
2023/04/12 10:25:31;;;;;;;12.43;4.35;;;11.80;99.90;;;;;;4981570;28;20768;-78
2023/04/12 10:28:16;;;;;;;10.98;4.30;;;12.20;99.90;;;;;;4994066;28;20449;-77
2023/04/12 10:30:42;;;;;;;14.43;4.00;;;;;;;;;;5015451;28;20510;-78
2023/04/12 10:33:08;;;;;;;12.68;3.95;;;;;;;;;;4995611;28;20517;-77
2023/04/12 10:35:54;;;;;;;11.55;3.97;;;12.80;99.90;;;;;;4995979;28;20442;-77
2023/04/12 10:38:22;;;;;;;10.20;3.83;;;;;;;;;;4997286;28;20395;-77
2023/04/12 10:41:11;;;;;;;12.00;3.92;;;12.90;99.90;;;;;;5012145;28;20518;-78
2023/04/12 10:43:38;;;;;;;10.65;3.33;;;;;;;;;;5011176;28;20423;-78
2023/04/12 10:46:05;;;;;;;12.57;3.60;;;;;;;;;;5020471;28;20529;-78
2023/04/12 10:48:36;;;;;;;10.63;3.20;;;;;;;;;;5010240;28;20437;-78
2023/04/12 10:51:12;;;;;;;13.43;3.17;;;;;;;;;;5012888;28;20417;-77
2023/04/12 10:53:39;;;;;;;13.48;3.17;;;;;;;;;;5012789;28;20446;-77
2023/04/12 10:56:39;;;;;;;11.23;3.20;;;;;;;;;;4994260;28;20481;-77
2023/04/12 10:59:11;;;;;;;11.77;3.10;;;;;;;;;;4977074;28;20419;-78
2023/04/12 11:01:37;;;;;;;11.00;2.88;;;;;;;;;;5000662;28;20473;-77
2023/04/12 11:04:30;;;;;;;10.13;2.83;;;;;;;;;;5012391;28;20430;-77
2023/04/12 11:07:00;;;;;;;14.75;3.50;;;13.20;99.90;;;;;;4993280;28;20418;-76
2023/04/12 11:09:29;;;;;;;10.82;2.95;;;;;;;;;;5008112;28;20434;-77
2023/04/12 11:12:13;;;;;;;11.75;2.88;;;;;;;;;;5009881;28;20419;-77
2023/04/12 11:14:47;;;;;;;10.15;2.97;;;;;;;;;;5013025;28;20935;-76
2023/04/12 11:17:14;;;;;;;10.18;2.85;;;;;;;;;;5016459;28;20445;-77
2023/04/12 11:19:43;;;;;;;10.30;2.50;;;;;;;;;;5015911;28;20425;-77
2023/04/12 11:22:11;;;;;;;11.93;3.17;;;;;;;;;;5014578;28;20422;-78
2023/04/12 11:24:42;;;;;;;12.98;3.25;;;;;;;;;;5015671;28;20422;-78
2023/04/12 11:27:09;;;;;;;13.05;3.17;;;;;;;;;;5026532;28;20425;-78
2023/04/12 11:29:35;;;;;;;10.48;2.47;;;;;;;;;;5007050;28;20423;-77
2023/04/12 11:32:08;;;;;;;12.73;2.90;;;13.80;99.90;;;;;;5010037;28;20427;-77
2023/04/12 11:34:35;;;;;;;13.57;3.00;;;;;;;;;;5014312;28;20427;-77
2023/04/12 11:37:06;;;;;;;12.75;3.08;;;;;;;;;;4995664;28;20506;-77
2023/04/12 11:39:33;;;;;;;14.50;2.97;;;;;;;;;;5012179;28;20422;-77
2023/04/12 11:42:02;;;;;;;14.50;3.17;;;;;;;;;;5027657;28;20422;-77
2023/04/12 11:44:28;;;;;;;14.93;3.53;;;;;;;;;;4995771;28;20477;-77
2023/04/12 11:46:54;;;;;;;17.30;3.40;;;;;;;;;;5013060;28;20426;-77
2023/04/12 11:49:22;;;;;;;14.88;3.17;;;13.40;99.90;;;;;;4998845;28;20957;-76
2023/04/12 11:51:48;;;;;;;14.13;3.28;;;;;;;;;;5016335;28;20433;-76
2023/04/12 11:54:14;;;;;;;17.27;3.25;;;;;;;;;;5014230;28;20430;-77
2023/04/12 11:56:41;;;;;;;14.77;3.15;;;;;;;;;;5016448;28;20414;-77
2023/04/12 11:59:07;;;;;;;14.35;3.47;;;;;;;;;;5012239;28;20422;-77
2023/04/12 12:01:34;;;;;;;13.47;3.50;;;;;;;;;;5015884;28;20422;-77
2023/04/12 12:04:00;;;;;;;13.05;3.15;;;;;;;;;;5012025;28;20427;-77
2023/04/12 12:06:27;;;;;;;14.15;2.90;;;;;;;;;;5027936;28;20462;-77
2023/04/12 12:08:53;;;;;;;13.50;3.05;;;;;;;;;;5015890;28;20414;-77
2023/04/12 12:11:23;;;;;;;14.38;3.05;;;;;;;;;;5014032;28;20491;-77
2023/04/12 12:13:49;;;;;;;14.67;3.60;;;;;;;;;;5013339;28;20497;-77
2023/04/12 12:16:17;;;;;;;15.53;3.23;;;;;;;;;;5015790;28;20778;-76
2023/04/12 12:18:44;;;;;;;15.90;3.45;;;;;;;;;;5020166;28;21098;-77
2023/04/12 12:21:14;;;;;;;12.68;3.05;;;14.00;99.90;;;;;;5014868;28;20407;-77
2023/04/12 12:23:44;;;;;;;12.65;3.40;;;;;;;;;;4999644;28;20400;-76
2023/04/12 12:26:24;;;;;;;11.07;2.55;;;14.10;99.90;;;;;;5015473;28;20519;-77
2023/04/12 12:28:52;;;;;;;13.13;3.28;;;13.80;99.90;;;;;;5013101;28;20415;-76
2023/04/12 12:31:20;;;;;;;12.50;3.22;;;;;;;;;;5005951;28;20918;-78
2023/04/12 12:33:46;;;;;;;9.88;2.72;;;;;;;;;;5015492;28;20426;-77
2023/04/12 12:36:15;;;;;;;14.45;2.83;;;;;;;;;;5013930;28;20472;-77
2023/04/12 12:38:41;;;;;;;11.55;2.80;;;;;;;;;;5015917;28;20790;-77
2023/04/12 12:41:18;;;;;;;11.13;3.25;;;14.00;99.90;;;;;;5011599;28;20426;-77
2023/04/12 12:43:48;;;;;;;11.07;2.78;;;;;;;;;;4996491;28;20945;-77
2023/04/12 12:46:14;;;;;;;12.77;2.72;;;;;;;;;;5011900;28;20480;-77
2023/04/12 12:48:41;;;;;;;11.38;2.60;;;;;;;;;;5011775;28;20569;-76
2023/04/12 12:51:10;;;;;;;10.70;3.00;;;;;;;;;;5011489;28;20762;-77
2023/04/12 12:53:37;;;;;;;10.27;2.45;;;;;;;;;;5013997;28;20427;-76
2023/04/12 12:56:03;;;;;;;10.27;2.30;;;;;;;;;;5022210;28;20426;-77
2023/04/12 12:58:30;;;;;;;7.95;2.20;;;;;;;;;;5015467;28;20480;-76
2023/04/12 13:00:58;;;;;;;10.25;2.60;;;;;;;;;;5015821;28;20489;-77
2023/04/12 13:03:24;;;;;;;8.63;2.08;;;;;;;;;;4998768;28;20408;-77
2023/04/12 13:05:50;;;;;;;7.53;2.08;;;;;;;;;;5010042;28;20469;-78
2023/04/12 13:08:17;;;;;;;8.60;2.45;;;;;;;;;;5001755;28;20774;-78
2023/04/12 13:10:43;;;;;;;12.13;2.65;;;;;;;;;;4998807;28;20427;-78
2023/04/12 13:13:09;;;;;;;7.80;1.70;;;;;;;;;;5024450;28;20403;-78
2023/04/12 13:15:35;;;;;;;8.02;1.77;;;;;;;;;;5019429;28;20512;-77
2023/04/12 13:18:01;;;;;;;6.82;1.88;;;;;;;;;;4997013;28;20903;-78
2023/04/12 13:20:28;;;;;;;7.28;1.90;;;;;;;;;;5012604;28;20427;-78
2023/04/12 13:22:54;;;;;;;7.68;1.98;;;;;;;;;;4995737;28;20431;-77
2023/04/12 13:25:20;;;;;;;9.20;2.03;;;;;;;;;;5001381;28;20509;-76
2023/04/12 13:27:50;;;;;;;6.57;1.92;;;;;;;;;;5012334;28;20846;-77
2023/04/12 13:30:19;;;;;;;6.75;1.90;;;;;;;;;;4995571;28;20423;-77
2023/04/12 13:32:46;;;;;;;6.57;1.92;;;;;;;;;;5010704;28;20495;-78
2023/04/12 13:35:12;;;;;;;8.30;2.00;;;;;;;;;;5012937;28;20458;-77
2023/04/12 13:37:38;;;;;;;7.90;2.38;;;;;;;;;;4996822;28;20430;-77
2023/04/12 13:40:05;;;;;;;8.85;2.28;;;;;;;;;;5009713;28;20509;-77
2023/04/12 13:42:31;;;;;;;8.20;2.10;;;;;;;;;;5030010;28;20427;-78
2023/04/12 13:44:58;;;;;;;9.40;2.17;;;;;;;;;;5021549;28;20434;-78
2023/04/12 13:47:24;;;;;;;9.40;2.20;;;;;;;;;;4995751;28;20513;-78
2023/04/12 13:49:50;;;;;;;9.02;2.20;;;;;;;;;;4997081;28;20770;-77
2023/04/12 13:52:16;;;;;;;10.10;2.42;;;;;;;;;;5014755;28;20445;-79
2023/04/12 13:54:42;;;;;;;9.17;2.10;;;;;;;;;;5013754;28;20838;-78
2023/04/12 13:57:09;;;;;;;9.38;2.25;;;;;;;;;;5013734;28;20480;-79
2023/04/12 13:59:35;;;;;;;8.13;2.70;;;;;;;;;;4979891;28;20471;-79
2023/04/12 14:02:01;;;;;;;10.75;3.08;;;;;;;;;;5018289;28;20431;-79
2023/04/12 14:04:29;;;;;;;11.18;2.38;;;13.40;99.90;;;;;;5013645;28;20407;-80
2023/04/12 14:06:56;;;;;;;10.85;2.38;;;;;;;;;;4999552;28;20945;-79
2023/04/12 14:09:24;;;;;;;9.68;2.03;;;;;;;;;;4995880;28;20427;-78
2023/04/12 14:11:50;;;;;;;11.82;2.10;;;;;;;;;;5014218;28;20403;-78
2023/04/12 14:14:16;;;;;;;9.90;2.17;;;;;;;;;;4993576;28;20783;-79
2023/04/12 14:16:43;;;;;;;9.82;1.88;;;;;;;;;;5006710;28;20420;-77
2023/04/12 14:19:09;;;;;;;8.07;1.85;;;;;;;;;;4994475;28;20427;-78
2023/04/12 14:21:36;;;;;;;9.70;2.40;;;;;;;;;;4994235;28;20418;-78
2023/04/12 14:24:02;;;;;;;8.60;2.15;;;;;;;;;;5008668;28;20430;-80
2023/04/12 14:26:29;;;;;;;9.77;2.20;;;;;;;;;;4994042;28;20426;-79
2023/04/12 14:28:55;;;;;;;10.02;2.30;;;;;;;;;;5010970;28;20421;-78